Time;durP1;ratioP1;P1;durP2;ratioP2;P2;SDS_P1;SDS_P2;PMS_P1;PMS_P2;Temp;Humidity;BMP_temperature;BMP_pressure;BME280_temperature;BME280_humidity;BME280_pressure;Samples;Min_cycle;Max_cycle;Signal;HPM_P1;HPM_P2
2022/04/22 00:02:24;;;;;;;12.70;8.43;;;10.80;99.90;;;;;;5021206;28;20069;-57
2022/04/22 00:04:50;;;;;;;13.57;8.50;;;10.80;99.90;;;;;;5014429;28;20061;-57
2022/04/22 00:07:16;;;;;;;14.15;9.82;;;10.80;99.90;;;;;;5003658;28;20465;-54
2022/04/22 00:09:43;;;;;;;14.27;9.40;;;10.70;99.90;;;;;;5022910;28;20419;-51
2022/04/22 00:12:09;;;;;;;11.27;9.10;;;10.60;99.90;;;;;;5019279;28;20138;-54
2022/04/22 00:14:36;;;;;;;16.27;8.70;;;10.60;99.90;;;;;;5019237;28;20057;-53
2022/04/22 00:17:02;;;;;;;13.82;9.95;;;10.60;99.90;;;;;;5022251;28;20485;-53
2022/04/22 00:19:29;;;;;;;12.82;9.20;;;10.60;99.90;;;;;;5023857;28;20084;-54
2022/04/22 00:21:56;;;;;;;14.55;9.13;;;10.50;99.90;;;;;;5022677;28;20057;-55
2022/04/22 00:24:22;;;;;;;15.05;9.90;;;10.60;99.90;;;;;;5014294;28;20464;-54
2022/04/22 00:26:48;;;;;;;15.63;9.45;;;10.50;99.90;;;;;;5017854;28;20131;-57
2022/04/22 00:29:14;;;;;;;14.98;8.90;;;10.50;99.90;;;;;;5021734;28;20057;-57
2022/04/22 00:31:40;;;;;;;13.75;10.05;;;10.50;99.90;;;;;;5022251;28;20103;-57
2022/04/22 00:34:07;;;;;;;12.00;8.90;;;10.40;99.90;;;;;;5019952;28;20045;-54
2022/04/22 00:36:33;;;;;;;15.90;10.40;;;10.40;99.90;;;;;;5014812;28;20092;-53
2022/04/22 00:39:01;;;;;;;19.42;10.55;;;10.40;99.90;;;;;;5022418;28;20148;-53
2022/04/22 00:41:28;;;;;;;14.73;9.93;;;10.40;99.90;;;;;;5023135;28;20057;-54
2022/04/22 00:43:55;;;;;;;16.85;9.95;;;10.30;99.90;;;;;;5004350;28;20042;-54
2022/04/22 00:46:21;;;;;;;13.52;9.90;;;10.40;99.90;;;;;;5019679;28;20133;-51
2022/04/22 00:48:47;;;;;;;14.55;10.10;;;10.30;99.90;;;;;;5021936;28;20052;-54
2022/04/22 00:51:14;;;;;;;15.13;10.43;;;10.30;99.90;;;;;;5021892;28;20041;-57
2022/04/22 00:53:45;;;;;;;18.70;10.27;;;10.20;99.90;;;;;;5005657;28;20049;-57
2022/04/22 00:56:11;;;;;;;15.52;10.50;;;10.20;99.90;;;;;;5002820;28;20057;-56
2022/04/22 00:58:40;;;;;;;13.90;10.30;;;10.20;99.90;;;;;;5021991;28;20063;-57
2022/04/22 01:01:06;;;;;;;16.08;11.43;;;10.20;99.90;;;;;;5020494;28;20521;-57
2022/04/22 01:03:33;;;;;;;21.02;11.25;;;10.10;99.90;;;;;;5004297;28;20068;-57
2022/04/22 01:11:35;;;;;;;19.15;11.30;;;10.00;99.90;;;;;;5004056;28;20092;-57
2022/04/22 01:14:04;;;;;;;19.65;12.02;;;10.00;99.90;;;;;;5005537;28;20076;-57
2022/04/22 01:16:30;;;;;;;18.35;11.70;;;10.00;99.90;;;;;;5020993;28;20053;-56
2022/04/22 01:18:56;;;;;;;18.10;11.68;;;9.90;99.90;;;;;;5022295;28;20566;-56
2022/04/22 01:21:22;;;;;;;16.50;11.20;;;9.90;99.90;;;;;;5020572;28;20069;-55
2022/04/22 01:23:49;;;;;;;18.65;12.38;;;9.80;99.90;;;;;;5021237;28;20087;-57
2022/04/22 01:26:16;;;;;;;19.85;11.82;;;9.80;99.90;;;;;;5023019;28;20151;-57
2022/04/22 01:28:43;;;;;;;18.80;12.50;;;9.70;99.90;;;;;;5023387;28;20110;-57
2022/04/22 01:31:09;;;;;;;16.75;12.23;;;9.70;99.90;;;;;;5019928;28;20447;-57
2022/04/22 01:33:36;;;;;;;16.33;12.93;;;9.70;99.90;;;;;;5016265;28;20041;-57
2022/04/22 01:36:02;;;;;;;16.33;11.75;;;9.60;99.90;;;;;;5020989;28;20501;-57
2022/04/22 01:38:30;;;;;;;17.67;13.35;;;9.50;99.90;;;;;;5023088;28;20045;-57
2022/04/22 01:40:56;;;;;;;18.25;13.00;;;9.50;99.90;;;;;;5021574;28;20049;-57
2022/04/22 01:43:22;;;;;;;19.63;12.60;;;9.50;99.90;;;;;;5012396;28;20512;-57
2022/04/22 01:45:52;;;;;;;18.48;13.10;;;9.50;99.90;;;;;;4989051;28;20057;-57
2022/04/22 01:48:19;;;;;;;16.70;13.10;;;9.40;99.90;;;;;;5003421;28;20048;-57
2022/04/22 01:50:46;;;;;;;22.38;14.05;;;9.40;99.90;;;;;;5022284;28;20802;-57
2022/04/22 01:53:12;;;;;;;17.88;12.68;;;9.40;99.90;;;;;;5000900;28;20263;-57
2022/04/22 01:55:38;;;;;;;20.38;13.77;;;9.30;99.90;;;;;;5022966;28;20061;-57
2022/04/22 01:58:04;;;;;;;21.67;13.02;;;9.30;99.90;;;;;;5021364;28;20103;-57
2022/04/22 02:00:31;;;;;;;18.55;13.07;;;9.30;99.90;;;;;;5020883;28;20045;-57
2022/04/22 02:02:57;;;;;;;18.58;13.38;;;9.30;99.90;;;;;;5018689;28;20519;-57
2022/04/22 02:05:23;;;;;;;19.00;12.93;;;9.20;99.90;;;;;;5021740;28;20702;-57
2022/04/22 02:07:50;;;;;;;17.10;12.00;;;9.20;99.90;;;;;;5007014;28;20073;-56
2022/04/22 02:10:16;;;;;;;19.35;13.15;;;9.20;99.90;;;;;;5020881;28;20045;-57
2022/04/22 02:12:42;;;;;;;18.38;12.32;;;9.20;99.90;;;;;;5015724;28;20044;-57
2022/04/22 02:15:09;;;;;;;17.48;13.18;;;9.20;99.90;;;;;;5024868;28;20057;-57
2022/04/22 02:17:35;;;;;;;17.10;12.70;;;9.10;99.90;;;;;;5026575;28;20451;-57
2022/04/22 02:20:03;;;;;;;21.85;13.38;;;9.10;99.90;;;;;;5024803;28;20422;-57
2022/04/22 02:22:29;;;;;;;21.50;13.20;;;9.10;99.90;;;;;;5022193;28;20056;-57
2022/04/22 02:24:57;;;;;;;20.08;12.85;;;9.10;99.90;;;;;;5019670;28;20144;-57
2022/04/22 02:30:08;;;;;;;17.05;12.30;;;8.90;99.90;;;;;;5024230;28;20501;-57
2022/04/22 02:32:35;;;;;;;17.13;12.68;;;8.90;99.90;;;;;;5025862;28;20511;-55
2022/04/22 02:35:02;;;;;;;22.80;13.43;;;8.90;99.90;;;;;;5022364;28;20041;-52
2022/04/22 02:37:28;;;;;;;18.80;13.38;;;8.80;99.90;;;;;;5007282;28;20092;-55
2022/04/22 02:39:54;;;;;;;19.17;13.05;;;8.80;99.90;;;;;;5024863;28;20053;-53
2022/04/22 02:47:50;;;;;;;17.30;12.02;;;8.70;99.90;;;;;;5003086;28;20060;-55
2022/04/22 02:50:16;;;;;;;20.55;12.68;;;8.70;99.90;;;;;;5025392;28;20052;-55
2022/04/22 02:52:42;;;;;;;20.40;12.98;;;8.60;99.90;;;;;;5024798;28;20049;-53
2022/04/22 02:55:08;;;;;;;18.98;13.48;;;8.60;99.90;;;;;;5024712;28;20242;-54
2022/04/22 02:57:35;;;;;;;18.10;12.48;;;8.60;99.90;;;;;;5024032;28;20103;-54
2022/04/22 03:00:02;;;;;;;18.90;11.98;;;8.60;99.90;;;;;;5022234;28;20151;-57
2022/04/22 03:02:28;;;;;;;17.77;11.60;;;8.60;99.90;;;;;;5023233;28;20061;-53
2022/04/22 03:04:55;;;;;;;15.52;11.45;;;8.60;99.90;;;;;;5010262;28;20057;-54
2022/04/22 03:07:21;;;;;;;15.63;12.25;;;8.50;99.90;;;;;;5022869;28;20073;-57
2022/04/22 03:09:47;;;;;;;16.05;11.32;;;8.50;99.90;;;;;;5007510;28;20128;-57
2022/04/22 03:12:14;;;;;;;15.52;11.93;;;8.50;99.90;;;;;;5024925;28;20049;-54
2022/04/22 03:14:41;;;;;;;13.38;10.60;;;8.50;99.90;;;;;;5021822;28;20580;-53
2022/04/22 03:17:07;;;;;;;13.90;11.27;;;8.50;99.90;;;;;;5021661;28;20053;-57
2022/04/22 03:19:33;;;;;;;18.92;11.52;;;8.40;99.90;;;;;;5022539;28;20061;-53
2022/04/22 03:21:59;;;;;;;14.82;10.50;;;8.40;99.90;;;;;;5024846;28;20124;-54
2022/04/22 03:24:25;;;;;;;16.35;11.00;;;8.40;99.90;;;;;;5018699;28;20057;-52
2022/04/22 03:26:51;;;;;;;19.98;12.15;;;8.40;99.90;;;;;;4990995;28;20053;-53
2022/04/22 03:29:17;;;;;;;14.93;9.80;;;8.30;99.90;;;;;;5022514;28;20037;-53
2022/04/22 03:31:44;;;;;;;16.67;10.60;;;8.30;99.90;;;;;;5009447;28;20179;-53
2022/04/22 03:34:10;;;;;;;14.13;10.20;;;8.20;99.90;;;;;;4982359;28;20061;-54
2022/04/22 03:36:36;;;;;;;13.52;9.63;;;8.20;99.90;;;;;;5007565;28;20056;-52
2022/04/22 03:39:02;;;;;;;14.63;10.73;;;8.20;99.90;;;;;;5022048;28;20045;-52
2022/04/22 03:41:29;;;;;;;12.75;9.48;;;8.10;99.90;;;;;;5005236;28;21862;-52
2022/04/22 03:43:55;;;;;;;13.27;9.57;;;8.10;99.90;;;;;;5005794;28;20073;-56
2022/04/22 03:46:22;;;;;;;15.35;9.20;;;8.10;99.90;;;;;;5024109;28;20491;-56
2022/04/22 03:48:48;;;;;;;18.63;9.45;;;8.10;99.90;;;;;;5023806;28;20049;-57
2022/04/22 03:51:14;;;;;;;12.40;8.20;;;8.00;99.90;;;;;;5021563;28;21069;-57
2022/04/22 03:53:41;;;;;;;11.23;8.45;;;8.00;99.90;;;;;;5024242;28;20099;-57
2022/04/22 03:58:51;;;;;;;12.23;8.27;;;7.90;99.90;;;;;;5023824;28;20050;-57
2022/04/22 04:01:17;;;;;;;13.45;8.85;;;8.00;99.90;;;;;;5021056;28;20060;-57
2022/04/22 04:03:44;;;;;;;11.35;7.30;;;7.90;99.90;;;;;;4974888;28;20115;-51
2022/04/22 04:06:10;;;;;;;16.30;8.55;;;7.90;99.90;;;;;;5021988;28;20442;-57
2022/04/22 04:08:36;;;;;;;10.77;7.82;;;7.90;99.90;;;;;;5021829;28;20076;-56
2022/04/22 04:16:25;;;;;;;10.77;7.45;;;7.90;99.90;;;;;;5020100;28;20045;-56
2022/04/22 04:18:51;;;;;;;10.57;7.80;;;7.80;99.90;;;;;;5019483;28;20046;-54
2022/04/22 04:24:03;;;;;;;10.88;7.25;;;7.90;99.90;;;;;;5021976;28;20055;-57
2022/04/22 04:26:29;;;;;;;10.75;6.60;;;7.90;99.90;;;;;;5022919;28;20047;-57
2022/04/22 04:28:55;;;;;;;12.80;7.03;;;7.90;99.90;;;;;;5018771;28;20049;-57
2022/04/22 04:31:21;;;;;;;10.18;6.50;;;7.90;99.90;;;;;;5016726;28;20689;-56
2022/04/22 04:33:50;;;;;;;8.13;6.40;;;7.90;99.90;;;;;;5023618;28;20508;-57
2022/04/22 04:36:17;;;;;;;10.48;7.25;;;7.90;99.90;;;;;;5023550;28;20504;-56
2022/04/22 04:38:43;;;;;;;11.25;6.53;;;7.90;99.90;;;;;;5016482;28;20053;-54
2022/04/22 04:41:12;;;;;;;10.55;6.40;;;7.80;99.90;;;;;;4999683;28;20588;-57
2022/04/22 04:43:39;;;;;;;10.75;6.75;;;7.80;99.90;;;;;;5023406;28;20053;-55
2022/04/22 04:46:06;;;;;;;9.20;6.78;;;7.80;99.90;;;;;;4990228;28;20050;-55
2022/04/22 04:48:34;;;;;;;9.75;6.32;;;7.80;99.90;;;;;;5021732;28;20049;-54
2022/04/22 04:51:00;;;;;;;9.20;6.45;;;7.80;99.90;;;;;;5022993;28;20452;-54
2022/04/22 04:53:27;;;;;;;11.13;6.05;;;7.80;99.90;;;;;;5023586;28;20053;-51
2022/04/22 04:55:53;;;;;;;10.43;6.45;;;7.70;99.90;;;;;;5005849;28;20049;-53
2022/04/22 04:58:20;;;;;;;12.43;6.65;;;7.80;99.90;;;;;;5004968;28;20038;-53
2022/04/22 05:00:47;;;;;;;8.20;6.15;;;7.80;99.90;;;;;;5015641;28;20445;-55
2022/04/22 05:03:14;;;;;;;8.88;6.10;;;7.80;99.90;;;;;;5023264;28;20069;-54
2022/04/22 05:05:40;;;;;;;10.50;5.97;;;7.80;99.90;;;;;;5019033;28;20160;-54
2022/04/22 05:08:07;;;;;;;11.65;6.53;;;7.80;99.90;;;;;;5024098;28;20204;-57
2022/04/22 05:10:35;;;;;;;9.30;6.45;;;7.90;99.90;;;;;;5018425;28;20425;-61
2022/04/22 05:13:03;;;;;;;7.50;5.70;;;7.90;99.90;;;;;;5023772;28;20386;-56
2022/04/22 05:15:33;;;;;;;10.55;6.22;;;7.90;99.90;;;;;;5021281;28;20057;-56
2022/04/22 05:18:02;;;;;;;9.93;5.85;;;8.00;99.90;;;;;;5025122;28;20124;-56
2022/04/22 05:20:29;;;;;;;11.23;6.25;;;8.10;99.90;;;;;;5026582;28;20049;-55
2022/04/22 05:22:58;;;;;;;9.68;6.63;;;8.20;99.90;;;;;;5028658;28;20056;-53
2022/04/22 05:25:25;;;;;;;8.82;5.32;;;8.30;99.90;;;;;;5022722;28;20583;-54
2022/04/22 05:27:52;;;;;;;11.32;6.13;;;8.40;99.90;;;;;;5022924;28;20052;-54
2022/04/22 05:33:04;;;;;;;10.88;6.50;;;8.60;99.90;;;;;;5022086;28;20049;-55
2022/04/22 05:35:31;;;;;;;8.85;5.68;;;8.60;99.90;;;;;;5020609;28;20037;-56
2022/04/22 05:38:00;;;;;;;9.50;5.53;;;8.70;99.90;;;;;;5033338;28;20046;-56
2022/04/22 05:40:30;;;;;;;8.57;5.25;;;8.80;99.90;;;;;;4995787;28;20045;-54
2022/04/22 05:42:57;;;;;;;8.45;5.88;;;8.80;99.90;;;;;;5018182;28;20044;-55
2022/04/22 05:45:25;;;;;;;8.82;5.47;;;8.90;99.90;;;;;;5016764;28;20064;-58
2022/04/22 05:47:51;;;;;;;16.92;12.15;;;8.90;99.90;;;;;;5006204;28;20127;-55
2022/04/22 05:50:19;;;;;;;11.98;8.30;;;9.00;99.90;;;;;;5020022;28;20041;-55
2022/04/22 05:52:45;;;;;;;11.45;7.45;;;9.00;99.90;;;;;;5007933;28;20056;-55
2022/04/22 05:55:33;;;;;;;11.02;7.10;;;9.20;99.90;;;;;;5002973;28;20053;-56
2022/04/22 05:58:00;;;;;;;13.20;7.72;;;9.30;99.90;;;;;;4987053;28;20058;-55
2022/04/22 06:00:30;;;;;;;14.13;9.23;;;9.40;99.90;;;;;;4977206;28;20049;-55
2022/04/22 06:02:56;;;;;;;9.75;5.78;;;9.50;99.90;;;;;;5020838;28;20061;-56
2022/04/22 06:05:23;;;;;;;13.48;8.60;;;9.60;99.90;;;;;;5019280;28;20519;-55
2022/04/22 06:10:36;;;;;;;10.65;7.38;;;9.70;99.90;;;;;;4997498;28;20049;-55
2022/04/22 06:13:03;;;;;;;9.15;5.82;;;9.90;99.90;;;;;;5002434;28;20085;-56
2022/04/22 06:15:29;;;;;;;14.10;7.03;;;9.90;99.90;;;;;;5016160;28;20056;-56
2022/04/22 06:17:57;;;;;;;10.75;6.38;;;10.00;99.90;;;;;;5022245;28;20088;-56
2022/04/22 06:20:23;;;;;;;11.35;7.38;;;10.00;99.90;;;;;;5001893;28;20050;-58
2022/04/22 06:22:50;;;;;;;10.07;6.63;;;10.20;99.90;;;;;;5009953;28;20485;-56
2022/04/22 06:25:16;;;;;;;10.35;7.65;;;10.40;99.90;;;;;;5012232;28;20501;-56
2022/04/22 06:27:45;;;;;;;7.43;4.90;;;10.40;99.90;;;;;;5021586;28;20819;-56
2022/04/22 06:30:19;;;;;;;16.50;12.80;;;10.50;99.90;;;;;;5020730;28;20169;-56
2022/04/22 06:32:47;;;;;;;11.55;8.50;;;10.60;99.90;;;;;;5023147;28;20045;-56
2022/04/22 06:35:15;;;;;;;13.48;9.13;;;10.60;99.90;;;;;;5019038;28;20057;-56
2022/04/22 06:37:43;;;;;;;13.88;10.43;;;10.80;99.90;;;;;;5014525;28;20049;-54
2022/04/22 06:45:48;;;;;;;9.13;5.05;;;11.10;99.90;;;;;;4985308;28;20508;-58
2022/04/22 06:48:17;;;;;;;8.35;5.63;;;11.10;99.90;;;;;;5011600;28;20053;-58
2022/04/22 06:50:48;;;;;;;9.65;6.10;;;11.20;99.90;;;;;;5015099;28;20053;-58
2022/04/22 06:53:16;;;;;;;10.13;5.53;;;11.30;99.90;;;;;;5021727;28;20591;-58
2022/04/22 06:55:43;;;;;;;7.60;4.65;;;11.50;99.90;;;;;;5024898;28;20773;-60
2022/04/22 06:58:12;;;;;;;12.23;9.30;;;11.70;99.90;;;;;;5009674;28;20779;-58
2022/04/22 07:00:39;;;;;;;13.45;9.80;;;11.90;99.90;;;;;;5017057;28;20125;-55
2022/04/22 07:03:07;;;;;;;8.25;6.63;;;12.10;99.90;;;;;;5011706;28;20517;-56
2022/04/22 07:05:34;;;;;;;11.20;5.93;;;12.30;99.90;;;;;;5014435;28;20047;-57
2022/04/22 07:08:06;;;;;;;10.48;7.95;;;12.50;99.90;;;;;;5017916;28;20115;-58
2022/04/22 07:10:34;;;;;;;14.85;11.68;;;12.60;99.90;;;;;;5001001;28;20049;-58
2022/04/22 07:13:01;;;;;;;6.90;4.47;;;12.80;99.90;;;;;;5029145;28;20049;-57
2022/04/22 07:15:28;;;;;;;12.05;8.50;;;12.70;99.90;;;;;;5015569;28;20132;-58
2022/04/22 07:17:55;;;;;;;10.48;5.63;;;12.80;99.90;;;;;;5015737;28;20125;-58
2022/04/22 07:20:22;;;;;;;10.70;8.27;;;13.20;99.90;;;;;;4997399;28;20060;-56
2022/04/22 07:22:49;;;;;;;10.85;7.13;;;13.20;99.90;;;;;;5018219;28;20493;-57
2022/04/22 07:25:16;;;;;;;7.78;4.20;;;13.50;99.90;;;;;;5018877;28;20088;-57
2022/04/22 07:27:47;;;;;;;13.18;7.63;;;13.80;99.90;;;;;;5016670;28;20081;-58
2022/04/22 07:30:16;;;;;;;7.78;5.15;;;14.20;99.90;;;;;;5010939;28;20412;-57
2022/04/22 07:32:45;;;;;;;7.53;4.78;;;14.40;99.90;;;;;;5012673;28;20048;-56
2022/04/22 07:35:13;;;;;;;10.77;8.00;;;14.70;99.90;;;;;;5016001;28;20730;-58
2022/04/22 07:37:40;;;;;;;8.30;4.97;;;14.70;99.90;;;;;;5016575;28;20577;-57
2022/04/22 07:40:08;;;;;;;9.68;6.47;;;14.60;99.90;;;;;;5017139;28;20574;-59
2022/04/22 07:42:35;;;;;;;11.30;7.43;;;15.00;99.90;;;;;;5015815;28;20137;-58
2022/04/22 07:47:50;;;;;;;6.88;3.70;;;15.20;99.90;;;;;;5013964;28;20049;-56
2022/04/22 07:50:18;;;;;;;5.97;4.18;;;15.10;99.90;;;;;;5014511;28;20663;-57
2022/04/22 07:52:45;;;;;;;7.40;4.18;;;15.50;99.90;;;;;;4999252;28;20821;-58
2022/04/22 07:55:13;;;;;;;8.82;5.53;;;15.50;99.80;;;;;;5012621;28;20084;-57
2022/04/22 07:57:41;;;;;;;8.23;4.13;;;15.70;97.50;;;;;;5013281;28;20054;-58
2022/04/22 08:00:08;;;;;;;8.45;3.85;;;16.00;88.10;;;;;;5010383;28;20057;-58
2022/04/22 08:02:41;;;;;;;6.70;3.63;;;16.10;76.80;;;;;;5020772;28;20048;-57
2022/04/22 08:05:12;;;;;;;7.00;4.20;;;16.00;65.20;;;;;;5023848;28;20053;-57
2022/04/22 08:07:38;;;;;;;6.57;3.38;;;16.30;62.90;;;;;;5021482;28;20776;-58
2022/04/22 08:10:06;;;;;;;7.25;3.50;;;16.30;61.00;;;;;;5005686;28;20053;-56
2022/04/22 08:12:33;;;;;;;7.03;4.15;;;16.30;59.60;;;;;;4990413;28;20459;-59
2022/04/22 08:15:03;;;;;;;7.53;2.97;;;16.40;59.10;;;;;;5022016;28;20049;-56
2022/04/22 08:17:37;;;;;;;4.60;3.13;;;16.40;57.90;;;;;;5007464;28;20045;-60
2022/04/22 08:20:05;;;;;;;6.35;2.90;;;16.40;56.20;;;;;;5007831;28;20141;-60
2022/04/22 08:22:32;;;;;;;4.15;2.70;;;16.70;57.40;;;;;;5022937;28;20049;-60
2022/04/22 08:24:59;;;;;;;5.50;2.92;;;16.80;57.30;;;;;;5005717;28;20054;-60
2022/04/22 08:27:29;;;;;;;5.55;2.83;;;17.10;56.20;;;;;;5023131;28;20076;-60
2022/04/22 08:29:55;;;;;;;5.90;2.63;;;17.40;55.20;;;;;;5015793;28;20045;-60
2022/04/22 08:32:22;;;;;;;4.32;3.00;;;17.70;54.10;;;;;;5021748;28;20060;-57
2022/04/22 08:34:48;;;;;;;11.27;3.05;;;17.80;53.60;;;;;;5021588;28;20042;-57
2022/04/22 08:37:14;;;;;;;6.72;2.95;;;17.70;53.00;;;;;;5022188;28;20049;-60
2022/04/22 08:39:40;;;;;;;3.53;2.40;;;18.00;52.60;;;;;;5003508;28;20053;-60
2022/04/22 08:42:08;;;;;;;5.65;2.47;;;18.10;51.90;;;;;;5017334;28;20501;-60
2022/04/22 08:44:36;;;;;;;4.40;2.38;;;18.40;51.30;;;;;;5022192;28;20050;-59
2022/04/22 08:49:59;;;;;;;4.72;2.13;;;18.60;49.50;;;;;;4997763;28;20060;-59
2022/04/22 08:52:26;;;;;;;6.60;2.65;;;18.40;50.10;;;;;;4995340;28;20107;-59
2022/04/22 08:54:55;;;;;;;4.88;2.67;;;18.60;50.10;;;;;;5024227;28;20191;-59
2022/04/22 08:57:22;;;;;;;5.18;2.55;;;18.80;49.50;;;;;;5021972;28;20087;-59
2022/04/22 08:59:49;;;;;;;5.65;2.63;;;18.80;49.10;;;;;;5021523;28;20173;-59
2022/04/22 09:02:17;;;;;;;4.60;2.00;;;18.90;47.90;;;;;;5023836;28;20462;-59
2022/04/22 09:04:44;;;;;;;6.25;2.67;;;19.40;48.10;;;;;;4976420;28;20400;-59
2022/04/22 09:07:13;;;;;;;4.50;2.13;;;18.90;47.60;;;;;;5009936;28;20469;-59
2022/04/22 09:09:44;;;;;;;7.90;4.68;;;19.20;47.70;;;;;;5002574;28;20057;-60
2022/04/22 09:12:12;;;;;;;5.28;2.75;;;19.80;48.30;;;;;;5002516;28;20347;-58
2022/04/22 09:14:46;;;;;;;4.90;2.60;;;19.40;47.10;;;;;;5023149;28;20083;-58
2022/04/22 09:17:21;;;;;;;5.68;2.35;;;20.00;45.90;;;;;;5021726;28;20088;-58
2022/04/22 09:19:47;;;;;;;5.05;3.08;;;19.90;44.90;;;;;;5018983;28;20059;-58
2022/04/22 09:22:26;;;;;;;6.15;2.70;;;19.80;45.80;;;;;;5003541;28;20518;-58
2022/04/22 09:24:54;;;;;;;8.20;4.30;;;20.20;45.70;;;;;;5012071;28;20046;-58
2022/04/22 09:27:32;;;;;;;7.28;4.38;;;20.20;45.80;;;;;;4984389;28;20045;-58
2022/04/22 09:30:00;;;;;;;9.77;8.30;;;20.30;44.30;;;;;;5009547;28;20045;-57
2022/04/22 09:32:35;;;;;;;7.80;4.15;;;20.40;45.50;;;;;;5011034;28;20542;-56
2022/04/22 09:35:11;;;;;;;9.27;5.85;;;20.40;43.50;;;;;;5031667;28;20095;-57
2022/04/22 09:43:38;;;;;;;10.25;7.00;;;21.30;43.10;;;;;;5010762;28;20112;-56
2022/04/22 09:46:05;;;;;;;7.55;3.05;;;21.40;43.40;;;;;;4998220;28;20052;-57
2022/04/22 09:48:45;;;;;;;9.10;6.03;;;22.00;42.80;;;;;;5008127;28;20502;-57
2022/04/22 09:51:27;;;;;;;6.40;3.70;;;21.70;41.20;;;;;;5012289;28;20536;-57
2022/04/22 09:54:00;;;;;;;9.02;3.58;;;21.50;40.40;;;;;;5013233;28;20049;-57
2022/04/22 09:56:27;;;;;;;8.35;4.43;;;21.30;41.10;;;;;;5013456;28;20541;-57
2022/04/22 09:58:53;;;;;;;5.85;5.05;;;21.60;41.70;;;;;;5028394;28;20128;-57
2022/04/22 10:01:19;;;;;;;12.93;6.32;;;21.60;41.60;;;;;;4992880;28;20058;-56
2022/04/22 10:03:46;;;;;;;10.45;7.80;;;21.30;40.80;;;;;;5006819;28;20061;-56
2022/04/22 10:06:12;;;;;;;8.25;6.38;;;21.60;40.90;;;;;;5019443;28;20055;-57
2022/04/22 10:08:39;;;;;;;12.35;6.28;;;21.70;41.20;;;;;;5010685;28;20053;-57
2022/04/22 10:11:07;;;;;;;8.95;6.28;;;22.00;40.30;;;;;;5002462;28;20085;-54
2022/04/22 10:13:46;;;;;;;7.82;4.55;;;21.90;40.70;;;;;;5009740;28;20045;-57
2022/04/22 10:16:13;;;;;;;8.15;4.68;;;21.80;40.80;;;;;;5014874;28;20050;-55
2022/04/22 10:18:41;;;;;;;7.35;3.08;;;21.90;40.50;;;;;;5018871;28;20683;-53
2022/04/22 10:21:08;;;;;;;7.30;4.78;;;22.20;39.80;;;;;;5018149;28;20457;-55
2022/04/22 10:23:36;;;;;;;7.07;3.78;;;22.40;39.30;;;;;;4996873;28;20073;-53
2022/04/22 10:26:05;;;;;;;7.20;3.67;;;22.60;39.70;;;;;;4995901;28;20478;-54
2022/04/22 10:28:32;;;;;;;5.07;2.75;;;22.30;39.30;;;;;;5012434;28;20068;-54
2022/04/22 10:31:03;;;;;;;6.40;4.38;;;22.00;38.90;;;;;;5017378;28;20074;-54
2022/04/22 10:33:41;;;;;;;12.77;6.78;;;22.20;40.10;;;;;;5011657;28;20050;-54
2022/04/22 10:36:11;;;;;;;8.55;6.13;;;22.20;39.70;;;;;;5013742;28;20045;-54
2022/04/22 10:38:38;;;;;;;8.00;6.70;;;22.20;40.70;;;;;;5025010;28;20053;-54
2022/04/22 10:41:16;;;;;;;6.03;5.00;;;22.50;40.70;;;;;;5014073;28;20149;-54
2022/04/22 10:43:43;;;;;;;7.90;5.03;;;22.50;40.70;;;;;;5011845;28;20677;-55
2022/04/22 10:49:13;;;;;;;6.53;4.07;;;23.40;39.70;;;;;;5026113;28;20397;-55
2022/04/22 10:52:11;;;;;;;7.20;5.70;;;23.70;37.90;;;;;;5009698;28;20099;-54
2022/04/22 10:54:52;;;;;;;7.60;4.85;;;23.60;38.30;;;;;;5020618;28;20062;-54
2022/04/22 10:57:31;;;;;;;7.63;4.65;;;23.50;39.50;;;;;;5023263;28;20053;-55
2022/04/22 11:00:27;;;;;;;5.30;3.40;;;23.30;38.00;;;;;;4978421;28;20096;-54
2022/04/22 11:03:02;;;;;;;6.15;3.75;;;23.50;38.20;;;;;;5018990;28;20049;-53
2022/04/22 11:05:31;;;;;;;8.63;5.38;;;23.60;38.30;;;;;;5025155;28;20049;-55
2022/04/22 11:07:57;;;;;;;7.75;4.22;;;23.60;39.10;;;;;;5004651;28;20052;-52
2022/04/22 11:10:48;;;;;;;7.30;4.80;;;23.90;38.80;;;;;;4988994;28;20455;-55
2022/04/22 11:13:42;;;;;;;6.78;4.20;;;23.60;38.30;;;;;;4978049;28;20076;-55
2022/04/22 11:16:16;;;;;;;10.18;5.47;;;23.60;37.30;;;;;;5037475;28;20049;-55
2022/04/22 11:19:05;;;;;;;6.18;3.90;;;23.80;37.90;;;;;;5016166;28;20042;-53
2022/04/22 11:21:32;;;;;;;11.68;9.02;;;23.90;38.10;;;;;;5026102;28;20041;-54
2022/04/22 11:23:59;;;;;;;8.57;6.93;;;24.20;37.80;;;;;;5021868;28;20052;-53
2022/04/22 11:26:26;;;;;;;5.03;3.17;;;24.60;36.90;;;;;;5026584;28;20057;-53
2022/04/22 11:28:53;;;;;;;10.40;5.22;;;24.10;36.80;;;;;;5010719;28;20081;-58
2022/04/22 11:31:24;;;;;;;11.40;6.80;;;23.70;36.90;;;;;;4996565;28;20081;-58
2022/04/22 11:34:02;;;;;;;9.68;5.72;;;24.20;38.00;;;;;;5021543;28;20042;-58
2022/04/22 11:36:29;;;;;;;7.82;3.40;;;23.90;36.50;;;;;;5020366;28;20064;-58
2022/04/22 11:38:55;;;;;;;7.20;4.65;;;24.00;37.80;;;;;;5020608;28;20048;-58
2022/04/22 11:41:22;;;;;;;7.95;6.20;;;23.90;37.50;;;;;;5013603;28;20518;-57
2022/04/22 11:43:49;;;;;;;8.23;6.68;;;24.50;37.80;;;;;;5002424;28;20049;-59
2022/04/22 11:46:17;;;;;;;10.80;5.90;;;24.60;37.00;;;;;;5017148;28;20723;-59
2022/04/22 11:48:53;;;;;;;10.55;9.38;;;24.50;36.70;;;;;;5011904;28;20053;-59
2022/04/22 11:51:20;;;;;;;9.82;8.80;;;24.80;37.00;;;;;;5006618;28;20057;-59
2022/04/22 11:53:49;;;;;;;10.18;7.00;;;24.80;36.30;;;;;;5016271;28;20048;-59
2022/04/22 11:56:20;;;;;;;8.38;6.32;;;24.80;36.70;;;;;;5006148;28;20156;-59
2022/04/22 11:58:50;;;;;;;8.55;5.55;;;24.70;35.80;;;;;;5023940;28;20049;-59
2022/04/22 12:06:45;;;;;;;9.27;5.22;;;24.00;35.40;;;;;;5016270;28;20053;-59
2022/04/22 12:09:12;;;;;;;8.15;6.40;;;23.70;36.00;;;;;;5014867;28;20060;-59
2022/04/22 12:11:41;;;;;;;9.43;4.93;;;23.90;36.50;;;;;;5002439;28;20389;-59
2022/04/22 12:14:07;;;;;;;11.10;6.25;;;23.70;36.40;;;;;;5018087;28;20061;-55
2022/04/22 12:16:34;;;;;;;8.30;5.88;;;23.60;37.30;;;;;;5019837;28;20049;-54
2022/04/22 12:19:00;;;;;;;7.75;5.15;;;23.40;37.80;;;;;;4996932;28;20053;-55
2022/04/22 12:21:33;;;;;;;8.65;4.70;;;22.90;37.90;;;;;;5033823;28;20119;-54
2022/04/22 12:24:00;;;;;;;11.02;5.53;;;22.90;37.40;;;;;;5012488;28;20052;-54
2022/04/22 12:26:30;;;;;;;7.57;4.70;;;22.80;37.60;;;;;;5010385;28;20103;-59
2022/04/22 12:29:10;;;;;;;6.03;4.78;;;22.80;38.30;;;;;;5010680;28;20076;-59
2022/04/22 12:31:47;;;;;;;6.88;4.85;;;23.60;38.50;;;;;;5034458;28;20565;-59
2022/04/22 12:34:15;;;;;;;8.90;4.25;;;23.40;37.60;;;;;;4994756;28;20064;-59
2022/04/22 12:36:54;;;;;;;5.50;3.67;;;23.30;37.30;;;;;;4994255;28;20050;-59
2022/04/22 12:39:38;;;;;;;7.55;5.07;;;23.60;36.70;;;;;;5014666;28;20056;-60
2022/04/22 12:42:19;;;;;;;8.77;5.95;;;24.40;38.30;;;;;;5012283;28;20062;-60
2022/04/22 12:53:50;;;;;;;9.80;6.60;;;22.70;38.00;;;;;;4996230;28;20045;-58
2022/04/22 12:56:24;;;;;;;9.52;5.90;;;22.50;39.80;;;;;;5019077;28;20049;-61
2022/04/22 12:58:52;;;;;;;17.70;13.40;;;22.40;39.20;;;;;;4977190;28;20093;-60
2022/04/22 13:01:20;;;;;;;10.65;8.23;;;22.00;40.10;;;;;;4992885;28;20046;-60
2022/04/22 13:03:48;;;;;;;9.10;6.60;;;21.40;40.60;;;;;;4981522;28;20080;-60
2022/04/22 13:06:39;;;;;;;8.57;6.65;;;21.50;41.10;;;;;;5014129;28;20675;-60
2022/04/22 13:09:06;;;;;;;15.07;13.52;;;22.20;40.10;;;;;;5023263;28;20064;-60
2022/04/22 13:11:33;;;;;;;9.85;5.93;;;22.80;39.80;;;;;;5006488;28;20424;-60
2022/04/22 13:14:00;;;;;;;17.77;15.90;;;23.70;39.40;;;;;;5020816;28;20064;-59
2022/04/22 13:16:27;;;;;;;16.08;7.25;;;24.00;38.70;;;;;;4981809;28;20061;-60
2022/04/22 13:18:53;;;;;;;14.35;11.15;;;23.60;38.20;;;;;;5004020;28;20303;-60
2022/04/22 13:21:19;;;;;;;18.80;15.20;;;23.20;39.10;;;;;;5005607;28;20045;-58
2022/04/22 13:23:46;;;;;;;9.27;6.22;;;22.50;40.20;;;;;;5017443;28;20095;-60
2022/04/22 13:26:12;;;;;;;8.73;7.38;;;22.60;40.00;;;;;;5019896;28;20390;-59
2022/04/22 13:28:38;;;;;;;9.57;7.07;;;22.90;39.80;;;;;;5023728;28;20049;-59
2022/04/22 13:31:04;;;;;;;10.20;6.18;;;22.60;39.50;;;;;;5004464;28;20085;-59
2022/04/22 13:33:32;;;;;;;13.63;6.68;;;22.00;40.00;;;;;;4995396;28;20433;-60
2022/04/22 13:36:02;;;;;;;8.75;6.18;;;21.40;41.10;;;;;;5003017;28;20091;-59
2022/04/22 13:38:30;;;;;;;9.63;6.00;;;21.20;42.20;;;;;;5006513;28;20045;-60
2022/04/22 13:40:56;;;;;;;10.73;7.70;;;21.20;42.30;;;;;;5005843;28;20081;-55
2022/04/22 13:43:26;;;;;;;9.57;7.10;;;21.30;42.80;;;;;;5010132;28;20041;-47
2022/04/22 13:54:06;;;;;;;12.45;9.63;;;21.20;42.10;;;;;;5005930;28;20488;-55
2022/04/22 13:56:32;;;;;;;11.05;8.48;;;20.80;43.10;;;;;;4985726;28;20064;-54
2022/04/22 13:58:58;;;;;;;11.30;9.20;;;20.30;44.60;;;;;;5003837;28;20227;-55
2022/04/22 14:01:24;;;;;;;9.48;6.45;;;20.00;45.10;;;;;;5034582;28;20050;-55
2022/04/22 14:03:51;;;;;;;9.80;7.03;;;20.00;45.40;;;;;;5014294;28;20053;-55